Time;durP1;ratioP1;P1;durP2;ratioP2;P2;SDS_P1;SDS_P2;PMS_P1;PMS_P2;Temp;Humidity;BMP_temperature;BMP_pressure;BME280_temperature;BME280_humidity;BME280_pressure;Samples;Min_cycle;Max_cycle;Signal;HPM_P1;HPM_P2
2022/07/20 00:01:06;;;;;;;5.80;5.50;;;;;;;24.84;36.55;101018.53;6001768;23;20031;-76
2022/07/20 00:03:33;;;;;;;6.20;5.90;;;;;;;24.96;36.46;101030.63;6049436;23;20841;-74
2022/07/20 00:05:59;;;;;;;5.53;5.22;;;;;;;25.07;37.08;101064.38;6066761;23;20014;-74
2022/07/20 00:11:20;;;;;;;6.07;5.60;;;;;;;24.51;37.23;100980.06;6057977;23;20026;-75
2022/07/20 00:13:52;;;;;;;6.00;5.60;;;;;;;24.97;37.62;101066.38;6058295;23;20014;-74
2022/07/20 00:16:21;;;;;;;7.25;6.85;;;;;;;24.81;37.52;101045.69;6028655;23;20022;-75
2022/07/20 00:18:48;;;;;;;5.97;5.57;;;;;;;24.59;37.30;101015.78;6029428;23;20023;-75
2022/07/20 00:21:15;;;;;;;6.63;6.25;;;;;;;24.69;36.89;101021.00;6053512;23;20038;-74
2022/07/20 00:23:41;;;;;;;5.80;5.50;;;;;;;24.57;37.39;101012.41;6055495;23;20029;-75
2022/07/20 00:26:08;;;;;;;5.82;5.53;;;;;;;24.91;36.86;101062.50;6032136;23;20141;-75
2022/07/20 00:28:35;;;;;;;6.15;5.85;;;;;;;24.42;37.15;100973.81;6061065;23;20170;-74
2022/07/20 00:31:02;;;;;;;5.70;5.40;;;;;;;24.71;37.39;101034.28;6050758;23;20349;-75
2022/07/20 00:33:28;;;;;;;8.52;8.02;;;;;;;24.20;37.67;100961.84;6055030;23;20237;-75
2022/07/20 00:35:55;;;;;;;5.72;5.43;;;;;;;24.74;37.35;101063.47;6054339;23;20019;-75
2022/07/20 00:38:21;;;;;;;7.70;7.30;;;;;;;24.46;37.65;100992.09;6054301;23;20549;-74
2022/07/20 00:40:49;;;;;;;6.30;5.93;;;;;;;24.65;38.00;101036.59;6063684;23;20609;-75
2022/07/20 00:43:15;;;;;;;6.38;6.05;;;;;;;24.60;37.48;101038.13;6061984;23;20029;-74
2022/07/20 00:45:42;;;;;;;5.95;5.65;;;;;;;24.26;38.03;100996.06;6027621;23;20019;-74
2022/07/20 00:48:08;;;;;;;6.00;5.70;;;;;;;24.56;38.24;101052.88;6024168;23;20026;-74
2022/07/20 00:50:35;;;;;;;6.03;5.72;;;;;;;24.49;38.42;101050.78;6020906;23;20701;-75
2022/07/20 00:53:01;;;;;;;5.70;5.40;;;;;;;24.33;38.50;101029.25;6060849;23;20038;-75
2022/07/20 00:55:28;;;;;;;6.78;6.47;;;;;;;24.11;37.95;100990.44;6059379;23;20038;-73
2022/07/20 00:57:54;;;;;;;6.10;5.80;;;;;;;24.32;37.86;101024.06;6050608;23;20818;-74
2022/07/20 01:00:21;;;;;;;7.25;6.85;;;;;;;23.97;38.49;100966.94;6021584;23;20114;-75
2022/07/20 01:02:47;;;;;;;6.57;6.18;;;;;;;23.63;38.51;100919.50;6052849;23;20021;-75
2022/07/20 01:05:14;;;;;;;5.88;5.57;;;;;;;24.29;38.32;101023.41;6071943;23;20025;-75
2022/07/20 01:07:45;;;;;;;5.78;5.47;;;;;;;24.27;38.47;101030.72;6052630;23;20037;-74
2022/07/20 01:10:13;;;;;;;6.03;5.68;;;;;;;24.23;38.48;101033.91;6049345;23;20094;-74
2022/07/20 01:12:49;;;;;;;5.68;5.38;;;;;;;24.19;39.34;101035.25;6048715;23;20033;-75
2022/07/20 01:15:17;;;;;;;6.57;6.18;;;;;;;24.00;39.69;101020.25;6045787;23;20024;-74
2022/07/20 01:17:43;;;;;;;6.07;5.68;;;;;;;24.07;39.64;101032.84;6031514;23;20027;-74
2022/07/20 01:20:16;;;;;;;6.10;5.80;;;;;;;23.78;39.45;100987.63;6051307;23;20099;-75
2022/07/20 01:22:46;;;;;;;6.25;5.95;;;;;;;24.08;39.69;101031.00;6017050;23;20315;-73
2022/07/20 01:25:13;;;;;;;6.13;5.82;;;;;;;24.09;39.52;101040.72;6056425;23;20026;-74
2022/07/20 01:27:39;;;;;;;6.13;5.82;;;;;;;24.07;38.97;101035.53;6026040;23;20030;-72
2022/07/20 01:30:06;;;;;;;5.80;5.50;;;;;;;24.04;39.19;101026.97;6052908;23;20029;-73
2022/07/20 01:32:33;;;;;;;6.90;6.25;;;;;;;24.07;39.78;101032.84;6048648;23;20030;-73
2022/07/20 01:35:00;;;;;;;5.90;5.60;;;;;;;23.85;39.82;101001.22;6060506;23;20046;-73
2022/07/20 01:37:28;;;;;;;6.85;6.55;;;;;;;23.97;39.69;101023.22;6057713;23;20101;-73
2022/07/20 01:39:54;;;;;;;6.10;5.80;;;;;;;23.78;39.48;100993.00;6006448;23;20065;-74
2022/07/20 01:42:20;;;;;;;7.28;6.90;;;;;;;23.47;39.49;100958.63;6055608;23;20409;-75
2022/07/20 01:44:47;;;;;;;6.05;5.75;;;;;;;23.45;39.92;100976.69;6022228;23;20041;-75
2022/07/20 01:47:13;;;;;;;5.43;5.22;;;;;;;23.52;40.38;100990.28;6061353;23;20033;-75
2022/07/20 01:49:40;;;;;;;6.15;5.85;;;;;;;23.70;40.26;101015.19;6019918;23;20018;-74
2022/07/20 01:52:06;;;;;;;5.82;5.53;;;;;;;23.79;39.85;101039.38;6061159;23;20428;-74
2022/07/20 01:54:33;;;;;;;5.63;5.32;;;;;;;23.73;40.71;101035.47;6049400;23;20586;-74
2022/07/20 01:56:59;;;;;;;5.88;5.57;;;;;;;23.25;40.80;100961.81;6061248;23;20019;-75
2022/07/20 01:59:25;;;;;;;7.40;7.00;;;;;;;23.26;40.21;100975.03;6052510;23;20030;-75
2022/07/20 02:01:52;;;;;;;5.75;5.45;;;;;;;23.36;40.44;100993.69;6052061;23;20047;-74
2022/07/20 02:04:19;;;;;;;7.38;6.97;;;;;;;23.67;40.47;101042.31;6026133;23;20030;-74
2022/07/20 02:06:47;;;;;;;6.10;5.80;;;;;;;23.68;40.00;101043.16;6026098;23;20511;-73
2022/07/20 02:09:13;;;;;;;5.90;5.60;;;;;;;23.33;40.57;100994.00;6065596;23;20022;-75
2022/07/20 02:11:39;;;;;;;6.05;5.75;;;;;;;23.26;40.85;101009.84;6037701;23;20110;-74
2022/07/20 02:14:06;;;;;;;5.90;5.57;;;;;;;23.50;40.53;101046.69;6055003;23;20022;-74
2022/07/20 02:16:32;;;;;;;6.18;5.82;;;;;;;23.44;41.16;101036.59;6026394;23;20015;-73
2022/07/20 02:19:00;;;;;;;5.80;5.50;;;;;;;22.82;41.22;100944.72;6068646;23;20019;-74
2022/07/20 02:21:29;;;;;;;7.38;6.97;;;;;;;23.17;41.26;100994.69;6052803;23;20106;-73
2022/07/20 02:23:56;;;;;;;5.80;5.50;;;;;;;23.53;40.75;101034.81;6061827;23;20092;-74
2022/07/20 02:26:23;;;;;;;6.85;6.53;;;;;;;23.47;40.66;101025.59;6057139;23;20037;-75
2022/07/20 02:28:49;;;;;;;5.70;5.40;;;;;;;23.20;40.87;100977.50;6032709;23;20037;-75
2022/07/20 02:31:21;;;;;;;7.57;7.05;;;;;;;23.46;41.07;101031.94;6036411;23;20501;-75
2022/07/20 02:33:49;;;;;;;5.78;5.47;;;;;;;23.30;40.93;101000.50;6030574;23;20098;-75
2022/07/20 02:36:16;;;;;;;6.38;6.07;;;;;;;23.14;41.33;100975.47;6049207;23;20021;-75
2022/07/20 02:38:42;;;;;;;6.18;5.88;;;;;;;23.39;40.63;101030.88;6020503;23;20019;-74
2022/07/20 02:41:09;;;;;;;6.00;5.70;;;;;;;23.36;40.82;101019.66;6053001;23;20019;-74
2022/07/20 02:43:36;;;;;;;5.75;5.45;;;;;;;23.24;41.21;101024.41;6058571;23;20030;-73
2022/07/20 02:46:03;;;;;;;5.70;5.40;;;;;;;23.08;40.95;100961.69;6062661;23;20054;-74
2022/07/20 02:48:30;;;;;;;7.38;6.97;;;;;;;23.44;40.90;101028.56;6051619;23;20016;-75
2022/07/20 02:50:56;;;;;;;5.85;5.50;;;;;;;23.23;41.04;101007.50;6034082;23;20030;-75
2022/07/20 02:53:23;;;;;;;7.20;6.80;;;;;;;23.21;40.81;100981.84;6056646;23;20507;-75
2022/07/20 02:55:49;;;;;;;5.80;5.50;;;;;;;23.28;40.66;100997.16;6063849;23;20037;-74
2022/07/20 02:58:16;;;;;;;6.82;6.43;;;;;;;22.74;40.74;100916.03;6006199;23;20039;-74
2022/07/20 03:00:42;;;;;;;5.93;5.63;;;;;;;22.79;40.88;100926.28;6053690;23;20475;-74
2022/07/20 03:03:09;;;;;;;6.10;5.80;;;;;;;23.35;41.44;101020.63;6063995;23;20034;-74
2022/07/20 03:05:36;;;;;;;6.72;6.32;;;;;;;;;;6064623;23;20475;-74
2022/07/20 03:08:07;;;;;;;5.80;5.50;;;;;;;23.22;41.31;101040.63;6063396;23;20420;-75
2022/07/20 03:10:34;;;;;;;5.97;5.60;;;;;;;23.08;41.80;101019.75;6063307;23;20090;-76
2022/07/20 03:13:01;;;;;;;6.00;5.70;;;;;;;22.79;42.05;100988.69;6054783;23;20026;-74
2022/07/20 03:15:27;;;;;;;7.32;6.93;;;;;;;22.93;42.13;101034.63;6059053;23;20030;-75
2022/07/20 03:17:54;;;;;;;5.75;5.45;;;;;;;22.86;42.31;101047.78;6056908;23;20029;-74
2022/07/20 03:20:24;;;;;;;7.28;6.88;;;;;;;21.66;42.37;100864.25;6052006;23;20034;-74
2022/07/20 03:22:51;;;;;;;5.82;5.53;;;;;;;22.99;42.34;101099.13;6005528;23;20093;-74
2022/07/20 03:25:17;;;;;;;6.45;6.15;;;;;;;22.93;42.89;101098.84;6052986;23;20010;-74
2022/07/20 03:27:44;;;;;;;5.60;5.30;;;;;;;22.85;43.44;101129.03;6029592;23;20049;-74
2022/07/20 03:30:11;;;;;;;6.07;5.68;;;;;;;22.75;44.28;101112.19;6027061;23;20017;-73
2022/07/20 03:32:37;;;;;;;5.50;5.30;;;;;;;22.62;45.01;101124.09;6048493;23;20022;-74
2022/07/20 03:35:04;;;;;;;6.10;5.80;;;;;;;22.48;44.94;101109.38;6032536;23;20029;-73
2022/07/20 03:37:31;;;;;;;6.60;6.22;;;;;;;21.95;44.79;101044.97;6052227;23;20093;-75
2022/07/20 03:39:57;;;;;;;5.90;5.60;;;;;;;22.09;46.33;101095.28;6035960;23;20041;-74
2022/07/20 03:42:24;;;;;;;7.20;6.78;;;;;;;22.07;45.67;101090.09;6058555;23;20017;-74
2022/07/20 03:44:50;;;;;;;6.00;5.70;;;;;;;21.28;46.03;100955.00;6063102;23;20480;-74
2022/07/20 03:47:17;;;;;;;6.10;5.80;;;;;;;22.20;46.64;101104.97;6033806;23;20030;-73
2022/07/20 03:49:43;;;;;;;5.68;5.38;;;;;;;21.87;47.34;101073.28;6019753;23;20010;-74
2022/07/20 03:52:09;;;;;;;5.93;5.63;;;;;;;21.85;47.36;101085.94;6035744;23;20030;-73
2022/07/20 03:54:37;;;;;;;6.10;5.80;;;;;;;22.02;47.43;101129.75;6052723;23;20277;-73
2022/07/20 03:57:04;;;;;;;6.30;5.90;;;;;;;21.54;47.41;101060.41;6065413;23;20376;-71
2022/07/20 03:59:30;;;;;;;7.60;7.03;;;;;;;21.97;47.75;101128.50;6053255;23;20201;-72
2022/07/20 04:01:57;;;;;;;6.07;5.78;;;;;;;21.95;47.72;101126.00;6048477;23;20026;-73
2022/07/20 04:04:23;;;;;;;7.68;7.07;;;;;;;21.95;47.72;101131.34;6059997;23;20038;-72
2022/07/20 04:06:50;;;;;;;6.20;5.90;;;;;;;21.40;48.73;101057.13;6066702;23;20020;-71
2022/07/20 04:09:43;;;;;;;6.88;6.53;;;;;;;21.60;47.96;101091.88;6057371;23;20033;-72
2022/07/20 04:12:03;;;;;;;5.82;5.53;;;;;;;21.67;48.31;101093.84;6031401;23;20022;-72
2022/07/20 04:14:30;;;;;;;7.88;7.35;;;;;;;21.83;48.39;101125.31;6028234;23;20553;-72
2022/07/20 04:16:56;;;;;;;6.60;6.20;;;;;;;22.18;49.26;101142.53;6056402;23;20089;-71
2022/07/20 04:19:23;;;;;;;7.45;7.05;;;;;;;22.13;48.54;101066.44;6059667;23;20033;-72
2022/07/20 04:21:49;;;;;;;6.30;5.90;;;;;;;22.75;47.15;101083.59;6027207;23;20588;-72
2022/07/20 04:24:15;;;;;;;6.53;6.22;;;;;;;23.67;45.48;101143.28;6057731;23;20010;-72
2022/07/20 04:26:42;;;;;;;5.82;5.53;;;;;;;24.18;45.55;101147.03;6027038;23;20084;-73
2022/07/20 04:29:08;;;;;;;6.05;5.75;;;;;;;24.62;44.12;101143.44;6054201;23;20022;-73
2022/07/20 04:31:35;;;;;;;6.53;5.85;;;;;;;25.09;42.78;101154.50;6052044;23;20022;-73
2022/07/20 04:34:01;;;;;;;6.07;5.78;;;;;;;25.42;42.63;101167.22;6025847;23;20038;-73
2022/07/20 04:36:28;;;;;;;7.40;7.00;;;;;;;25.63;42.29;101172.09;6057829;23;20048;-72
2022/07/20 04:38:54;;;;;;;6.30;5.90;;;;;;;24.88;44.44;101183.66;6058063;23;20535;-72
2022/07/20 04:41:21;;;;;;;7.82;7.43;;;;;;;25.42;43.58;101194.91;6059747;23;20006;-74
2022/07/20 04:43:48;;;;;;;5.88;5.57;;;;;;;25.56;42.91;101136.97;6057007;23;20560;-72
2022/07/20 04:46:14;;;;;;;6.05;5.75;;;;;;;26.34;41.67;101188.53;6065382;23;20717;-72
2022/07/20 04:48:40;;;;;;;6.20;5.80;;;;;;;26.06;39.48;101156.66;6055620;23;20033;-72
2022/07/20 04:51:07;;;;;;;6.07;5.78;;;;;;;26.60;40.02;101175.72;6055169;23;20365;-72
2022/07/20 04:53:33;;;;;;;6.20;5.90;;;;;;;26.89;39.19;101141.91;6054084;23;20097;-72
2022/07/20 04:56:00;;;;;;;7.30;6.80;;;;;;;26.64;38.24;101163.59;6069127;23;20034;-72
2022/07/20 04:58:26;;;;;;;7.50;7.03;;;;;;;27.42;38.11;101234.63;6051010;23;20081;-75
2022/07/20 05:00:55;;;;;;;6.63;6.22;;;;;;;27.58;38.07;101195.06;6055771;23;20014;-74
2022/07/20 05:03:22;;;;;;;7.70;7.30;;;;;;;27.91;37.30;101233.47;6050516;23;20098;-72
2022/07/20 05:05:49;;;;;;;6.65;6.25;;;;;;;27.78;38.03;101258.28;6030947;23;20015;-72
2022/07/20 05:08:16;;;;;;;7.15;6.75;;;;;;;28.10;37.31;101190.78;6061719;23;20021;-74
2022/07/20 05:10:42;;;;;;;6.18;5.88;;;;;;;28.35;37.34;101167.09;6040059;23;20041;-73
2022/07/20 05:13:09;;;;;;;7.10;6.70;;;;;;;28.68;37.36;101242.34;6057225;23;20033;-73
2022/07/20 05:15:35;;;;;;;6.85;6.40;;;;;;;28.87;37.39;101236.41;6029018;23;20051;-73
2022/07/20 05:18:01;;;;;;;7.40;6.80;;;;;;;28.92;37.80;101247.47;6061030;23;20030;-73
2022/07/20 05:20:28;;;;;;;8.57;7.78;;;;;;;29.27;37.65;101233.38;6055027;23;20310;-73
2022/07/20 05:22:54;;;;;;;7.20;6.70;;;;;;;28.83;38.59;101191.88;6028696;23;20034;-73
2022/07/20 05:25:21;;;;;;;9.40;8.70;;;;;;;29.56;37.81;101221.63;6026259;23;20014;-74
2022/07/20 05:27:54;;;;;;;8.00;7.47;;;;;;;29.46;38.42;101245.44;6057892;23;20021;-73
2022/07/20 05:30:21;;;;;;;9.68;8.85;;;;;;;29.78;37.62;101198.97;6048454;23;20026;-72
2022/07/20 05:32:47;;;;;;;7.88;7.20;;;;;;;29.88;38.16;101236.53;6055429;23;20085;-72
2022/07/20 05:35:13;;;;;;;7.55;7.05;;;;;;;29.52;38.14;101239.28;6049826;23;20089;-72
2022/07/20 05:37:40;;;;;;;8.20;7.50;;;;;;;29.77;37.59;101264.13;6027629;23;20483;-71
2022/07/20 05:40:07;;;;;;;8.07;7.47;;;;;;;29.72;38.46;101253.03;6072847;23;20030;-72
2022/07/20 05:42:33;;;;;;;8.30;7.53;;;;;;;30.22;38.12;101235.75;6045700;23;20082;-72
2022/07/20 05:45:00;;;;;;;10.93;7.32;;;;;;;29.48;38.10;101167.66;6039537;23;20037;-71
2022/07/20 05:47:26;;;;;;;8.98;8.38;;;;;;;29.88;38.83;101235.69;6055286;23;20173;-73
2022/07/20 05:49:52;;;;;;;8.20;7.60;;;;;;;29.18;39.72;101255.09;6022954;23;20026;-71
2022/07/20 05:52:19;;;;;;;9.57;8.85;;;;;;;29.50;38.68;101187.25;6060806;23;20022;-72
2022/07/20 05:54:45;;;;;;;9.45;8.43;;;;;;;29.75;38.67;101169.63;6045312;23;20022;-73
2022/07/20 05:57:12;;;;;;;8.68;7.97;;;;;;;29.42;38.66;101126.00;6051986;23;20178;-72
2022/07/20 05:59:40;;;;;;;8.88;8.15;;;;;;;29.99;39.06;101262.25;6049543;23;20615;-72
2022/07/20 06:02:09;;;;;;;11.18;9.55;;;;;;;30.35;38.81;101253.16;6020908;23;20105;-71
2022/07/20 06:04:37;;;;;;;11.82;8.18;;;;;;;29.82;39.12;101278.72;6025963;23;20022;-72
2022/07/20 06:07:04;;;;;;;9.02;7.78;;;;;;;30.06;38.81;101235.22;6022777;23;20033;-72
2022/07/20 06:09:31;;;;;;;9.32;8.60;;;;;;;30.23;39.12;101210.38;6023096;23;20528;-72
2022/07/20 06:11:58;;;;;;;8.40;7.70;;;;;;;30.34;38.72;101221.72;6056609;23;20130;-72
2022/07/20 06:14:24;;;;;;;10.10;9.30;;;;;;;30.19;38.87;101224.47;6024462;23;20408;-72
2022/07/20 06:16:51;;;;;;;8.50;7.80;;;;;;;30.44;39.40;101278.25;6054175;23;20101;-71
2022/07/20 06:19:17;;;;;;;10.73;9.73;;;;;;;30.76;38.38;101271.38;6020516;23;20018;-71
2022/07/20 06:21:44;;;;;;;9.35;8.55;;;;;;;30.68;38.22;101279.66;6031453;23;20504;-73
2022/07/20 06:24:10;;;;;;;8.82;8.10;;;;;;;30.27;39.58;101296.63;6023240;23;20103;-71
2022/07/20 06:26:43;;;;;;;9.43;8.63;;;;;;;29.71;40.33;101313.53;6034491;23;20015;-72
2022/07/20 06:29:10;;;;;;;9.35;8.55;;;;;;;29.02;41.76;101285.00;6053303;23;20033;-71
2022/07/20 06:31:36;;;;;;;8.57;7.97;;;;;;;29.18;41.23;101265.91;5994944;23;20026;-71
2022/07/20 06:34:23;;;;;;;9.82;9.02;;;;;;;28.99;42.00;101269.19;6050903;23;20013;-71
2022/07/20 06:36:49;;;;;;;11.18;7.80;;;;;;;29.22;41.40;101255.56;6020511;23;20532;-72
2022/07/20 06:39:15;;;;;;;9.82;9.00;;;;;;;29.66;41.83;101307.88;6050764;23;20033;-72
2022/07/20 06:41:42;;;;;;;8.68;7.97;;;;;;;29.41;41.38;101325.28;6021279;23;20025;-72
2022/07/20 06:44:08;;;;;;;9.45;8.55;;;;;;;29.16;42.62;101332.84;6046338;23;20018;-71
2022/07/20 06:46:35;;;;;;;11.07;8.57;;;;;;;28.88;42.98;101335.31;6022318;23;20555;-72
2022/07/20 06:49:01;;;;;;;8.77;8.07;;;;;;;28.96;43.22;101354.16;6048878;23;20085;-72
2022/07/20 06:51:28;;;;;;;10.77;9.85;;;;;;;28.50;43.10;101302.97;6045583;23;20074;-71
2022/07/20 06:53:55;;;;;;;9.13;8.30;;;;;;;28.52;43.76;101371.13;6000933;23;20007;-71
2022/07/20 06:56:21;;;;;;;9.68;8.90;;;;;;;27.83;44.92;101323.34;6018841;23;20081;-72
2022/07/20 06:58:48;;;;;;;8.05;7.47;;;;;;;27.72;45.94;101377.66;6052394;23;20495;-71
2022/07/20 07:01:14;;;;;;;9.18;8.43;;;;;;;27.46;46.17;101353.69;6018374;23;20034;-72
2022/07/20 07:03:41;;;;;;;8.80;8.10;;;;;;;25.97;46.07;101095.81;6047386;23;20750;-71
2022/07/20 07:06:07;;;;;;;8.82;7.97;;;;;;;27.83;46.67;101389.94;6024883;23;20026;-72
2022/07/20 07:08:34;;;;;;;9.70;8.75;;;;;;;27.97;45.18;101329.03;6021652;23;20349;-71
2022/07/20 07:11:00;;;;;;;8.68;7.97;;;;;;;28.31;45.13;101390.69;6025987;23;20565;-71
2022/07/20 07:13:27;;;;;;;8.77;8.07;;;;;;;27.72;45.16;101287.84;6049974;23;20032;-72
2022/07/20 07:15:53;;;;;;;8.77;7.97;;;;;;;28.51;44.43;101409.13;6024984;23;20383;-72
2022/07/20 07:18:19;;;;;;;10.18;9.35;;;;;;;28.36;44.35;101377.47;6045867;23;20046;-72
2022/07/20 07:20:46;;;;;;;8.40;7.60;;;;;;;29.09;44.03;101407.56;6021090;23;20003;-72
2022/07/20 07:23:13;;;;;;;8.63;7.90;;;;;;;28.56;44.00;101341.91;6048304;23;20082;-72
2022/07/20 07:25:39;;;;;;;8.20;7.50;;;;;;;28.91;43.04;101420.59;6050737;23;20022;-71
2022/07/20 07:28:05;;;;;;;9.13;8.25;;;;;;;28.50;43.57;101370.47;6061413;23;20026;-72
2022/07/20 07:30:33;;;;;;;8.55;7.90;;;;;;;28.40;43.47;101359.03;6045145;23;20108;-72
2022/07/20 07:32:59;;;;;;;9.50;8.70;;;;;;;28.64;43.63;101434.47;6025708;23;20327;-71
2022/07/20 07:35:25;;;;;;;11.05;10.05;;;;;;;28.41;44.08;101366.13;6049686;23;20089;-71
2022/07/20 07:37:52;;;;;;;8.98;8.18;;;;;;;28.39;44.59;101414.06;6056363;23;20034;-71
2022/07/20 07:40:19;;;;;;;9.90;9.10;;;;;;;28.38;45.24;101377.28;6035601;23;20018;-70
2022/07/20 07:42:45;;;;;;;12.05;8.05;;;;;;;28.78;45.28;101443.66;6023939;23;20019;-72
2022/07/20 07:45:12;;;;;;;8.43;7.82;;;;;;;28.71;43.97;101453.53;6056056;23;20053;-72
2022/07/20 07:47:38;;;;;;;8.55;7.85;;;;;;;27.78;43.26;101351.84;6056173;23;20030;-71
2022/07/20 07:50:05;;;;;;;9.15;8.45;;;;;;;27.65;43.93;101387.50;6027301;23;20267;-70
2022/07/20 07:52:32;;;;;;;9.40;8.75;;;;;;;28.23;43.80;101461.75;6032412;23;20488;-72
2022/07/20 07:54:58;;;;;;;9.07;8.48;;;;;;;28.69;43.94;101449.34;6052926;23;20030;-71
2022/07/20 07:57:24;;;;;;;9.90;9.20;;;;;;;28.53;43.47;101394.41;6004618;23;20393;-70
2022/07/20 07:59:51;;;;;;;8.25;7.55;;;;;;;28.34;43.73;101384.91;6054011;23;20089;-70
2022/07/20 08:02:17;;;;;;;10.13;9.27;;;;;;;28.86;44.77;101483.28;6048741;23;20014;-71
2022/07/20 08:04:44;;;;;;;7.75;7.25;;;;;;;28.95;44.02;101486.75;6061495;23;20041;-71
2022/07/20 08:07:10;;;;;;;9.10;8.25;;;;;;;28.47;44.48;101416.72;6059416;23;20022;-70
2022/07/20 08:09:37;;;;;;;9.10;8.40;;;;;;;28.60;44.96;101503.38;6031322;23;20401;-70
2022/07/20 08:12:03;;;;;;;8.43;7.72;;;;;;;27.77;44.85;101428.41;6057105;23;20093;-71
2022/07/20 08:14:30;;;;;;;9.45;8.77;;;;;;;27.87;44.83;101444.38;6017723;23;20053;-70
2022/07/20 08:16:56;;;;;;;8.35;7.75;;;;;;;28.40;45.04;101505.66;6057913;23;20018;-71
2022/07/20 08:19:23;;;;;;;10.27;9.27;;;;;;;28.27;44.89;101420.91;6050249;23;20046;-71
2022/07/20 08:21:49;;;;;;;9.23;8.43;;;;;;;28.77;43.83;101454.66;6053077;23;20389;-70
2022/07/20 08:24:16;;;;;;;9.18;8.35;;;;;;;29.39;43.53;101510.38;6058950;23;20006;-71
2022/07/20 08:26:43;;;;;;;8.00;7.43;;;;;;;28.79;44.18;101471.53;6030179;23;20254;-70
2022/07/20 08:29:09;;;;;;;8.35;7.75;;;;;;;28.84;43.04;101428.59;6058466;23;20030;-71
2022/07/20 08:31:38;;;;;;;8.93;8.13;;;;;;;28.90;44.04;101508.91;6032533;23;20018;-70
2022/07/20 08:34:04;;;;;;;8.68;7.88;;;;;;;29.34;42.41;101502.81;6036501;23;20071;-70
2022/07/20 08:36:31;;;;;;;8.93;8.32;;;;;;;29.34;42.58;101491.16;6026220;23;20094;-70
2022/07/20 08:38:57;;;;;;;8.82;7.60;;;;;;;28.75;42.68;101433.22;6058318;23;20026;-70
2022/07/20 08:41:25;;;;;;;9.77;9.07;;;;;;;28.81;42.28;101420.84;6022931;23;20088;-71
2022/07/20 08:43:51;;;;;;;8.82;8.13;;;;;;;29.02;42.43;101442.59;6056021;23;20492;-71
2022/07/20 08:46:21;;;;;;;9.02;8.40;;;;;;;29.46;42.33;101442.84;6002849;23;20407;-71
2022/07/20 08:48:48;;;;;;;8.50;7.90;;;;;;;29.33;42.29;101382.16;6055344;23;20162;-71
2022/07/20 08:51:15;;;;;;;8.65;7.88;;;;;;;30.00;41.91;101458.78;6056613;23;20377;-71
2022/07/20 08:53:42;;;;;;;8.60;7.78;;;;;;;29.73;41.89;101427.84;6054517;23;20034;-70
2022/07/20 08:56:09;;;;;;;9.27;8.38;;;;;;;29.58;41.81;101463.00;6058735;23;20594;-71
2022/07/20 08:58:35;;;;;;;8.60;7.85;;;;;;;29.33;42.33;101481.38;6056392;23;20028;-70
2022/07/20 09:01:02;;;;;;;8.65;8.05;;;;;;;28.42;43.57;101467.69;6049381;23;20022;-70
2022/07/20 09:03:28;;;;;;;9.55;8.65;;;;;;;28.42;44.21;101478.50;6051647;23;20036;-71
2022/07/20 09:06:06;;;;;;;10.82;7.90;;;;;;;28.25;44.06;101457.00;6060801;23;20396;-71
2022/07/20 09:08:34;;;;;;;7.80;7.20;;;;;;;28.16;44.19;101449.97;6002205;23;20019;-71
2022/07/20 09:11:02;;;;;;;8.73;7.93;;;;;;;27.61;45.09;101419.38;6049239;23;20094;-71
2022/07/20 09:13:35;;;;;;;9.23;8.52;;;;;;;27.90;45.18;101447.59;6018591;23;20112;-71
2022/07/20 09:16:02;;;;;;;8.55;7.60;;;;;;;28.01;45.22;101438.28;6064718;23;20021;-70
2022/07/20 09:18:32;;;;;;;7.53;7.03;;;;;;;27.79;45.21;101419.13;6031345;23;20021;-70
2022/07/20 09:20:58;;;;;;;7.78;7.07;;;;;;;27.72;46.07;101433.47;6059690;23;20066;-71
2022/07/20 09:23:34;;;;;;;7.28;6.78;;;;;;;28.01;45.57;101419.38;6048131;23;20022;-71
2022/07/20 09:26:01;;;;;;;8.23;7.68;;;;;;;27.77;45.86;101412.22;6061895;23;20385;-71
2022/07/20 09:28:34;;;;;;;9.32;8.52;;;;;;;27.73;46.44;101413.59;6053349;23;20531;-72
2022/07/20 09:31:01;;;;;;;8.63;7.70;;;;;;;27.64;45.88;101380.41;6059459;23;20022;-70
2022/07/20 09:33:30;;;;;;;9.07;8.48;;;;;;;28.17;45.41;101413.88;6054427;23;20018;-71
2022/07/20 09:36:01;;;;;;;7.90;7.20;;;;;;;29.04;44.47;101475.69;6032999;23;20018;-72
2022/07/20 09:38:34;;;;;;;8.50;8.00;;;;;;;29.33;43.22;101517.34;6062323;23;20026;-71
2022/07/20 09:41:04;;;;;;;8.43;7.72;;;;;;;29.62;42.82;101484.06;6068209;23;20030;-70
2022/07/20 09:43:33;;;;;;;9.80;8.93;;;;;;;29.24;42.70;101397.63;6059333;23;20249;-71
2022/07/20 09:46:20;;;;;;;7.90;7.20;;;;;;;30.03;42.82;101485.50;6056891;23;20320;-71
2022/07/20 09:48:55;;;;;;;7.55;6.95;;;;;;;30.38;42.27;101478.41;6066032;23;20468;-70
2022/07/20 09:51:24;;;;;;;7.82;7.22;;;;;;;30.31;41.67;101499.19;6026499;23;20030;-71
2022/07/20 09:53:54;;;;;;;7.78;7.20;;;;;;;30.07;41.88;101442.59;6058904;23;20006;-71
2022/07/20 09:56:22;;;;;;;9.35;8.65;;;;;;;30.73;40.58;101493.97;6062500;23;20037;-70
2022/07/20 09:58:51;;;;;;;8.35;7.75;;;;;;;31.01;41.20;101507.56;6021316;23;20026;-70
2022/07/20 10:01:25;;;;;;;10.30;9.50;;;;;;;30.67;40.55;101441.41;6048163;23;20018;-71
2022/07/20 10:03:54;;;;;;;8.30;7.60;;;;;;;31.04;41.14;101496.34;6046319;23;20145;-73
2022/07/20 10:06:22;;;;;;;9.45;8.75;;;;;;;31.24;40.04;101496.50;6020823;23;20046;-71
2022/07/20 10:08:55;;;;;;;8.38;7.68;;;;;;;31.51;40.09;101491.28;6002522;23;20458;-71
2022/07/20 10:11:26;;;;;;;10.25;9.45;;;;;;;31.88;38.95;101484.59;6011413;23;20471;-71
2022/07/20 10:13:54;;;;;;;8.73;7.88;;;;;;;31.51;40.59;101469.59;6028795;23;20011;-73
2022/07/20 10:16:29;;;;;;;9.32;8.63;;;;;;;32.26;38.63;101486.03;6036517;23;20025;-71
2022/07/20 10:18:56;;;;;;;8.73;7.85;;;;;;;32.13;38.86;101492.25;6032248;23;20081;-72
2022/07/20 10:21:48;;;;;;;9.77;9.07;;;;;;;30.94;39.64;101335.94;6027665;23;20022;-71
2022/07/20 10:24:27;;;;;;;9.35;8.52;;;;;;;32.06;39.21;101489.50;6028952;23;20006;-72
2022/07/20 10:27:11;;;;;;;8.80;8.10;;;;;;;32.32;39.25;101480.59;6007735;23;20031;-71
2022/07/20 10:29:41;;;;;;;8.32;7.53;;;;;;;32.08;38.82;101492.84;6007809;23;20027;-71
2022/07/20 10:32:16;;;;;;;12.07;7.55;;;;;;;32.02;38.18;101496.38;6015213;23;20018;-72
2022/07/20 10:34:48;;;;;;;8.18;7.32;;;;;;;32.01;39.38;101513.72;6023331;23;20026;-71
2022/07/20 10:37:36;;;;;;;8.27;7.65;;;;;;;32.14;39.04;101488.50;6030197;23;20031;-71
2022/07/20 10:40:17;;;;;;;8.43;7.63;;;;;;;32.05;38.81;101498.69;6013455;23;20082;-72
2022/07/20 10:42:51;;;;;;;7.80;7.20;;;;;;;32.04;39.76;101498.91;6029668;23;20456;-71
2022/07/20 10:45:19;;;;;;;9.02;8.43;;;;;;;31.75;40.11;101495.38;6026270;23;20074;-72
2022/07/20 10:47:51;;;;;;;8.02;7.05;;;;;;;31.83;37.92;101459.94;6002817;23;20486;-73
2022/07/20 10:50:28;;;;;;;8.10;7.60;;;;;;;32.05;37.54;101497.84;6018911;23;20042;-73
2022/07/20 10:52:57;;;;;;;7.35;6.78;;;;;;;32.12;37.48;101491.41;6006138;23;20094;-72
2022/07/20 10:55:36;;;;;;;7.22;6.72;;;;;;;32.06;37.42;101499.53;6004820;23;20027;-70
2022/07/20 10:58:09;;;;;;;7.55;6.95;;;;;;;31.75;37.31;101447.38;6035582;23;20493;-71
2022/07/20 11:00:46;;;;;;;7.07;6.57;;;;;;;31.96;37.58;101491.75;6003254;23;20343;-71
2022/07/20 11:03:21;;;;;;;7.32;6.63;;;;;;;31.91;36.58;101502.34;5999390;23;20027;-72
2022/07/20 11:05:59;;;;;;;6.95;6.45;;;;;;;31.77;36.29;101493.31;6023218;23;20235;-71
2022/07/20 11:08:26;;;;;;;7.88;7.38;;;;;;;31.37;37.64;101503.91;6030686;23;20082;-71
2022/07/20 11:10:55;;;;;;;7.07;6.68;;;;;;;31.33;37.68;101500.75;6015290;23;20424;-71
2022/07/20 11:13:22;;;;;;;8.60;8.10;;;;;;;31.44;38.03;101510.22;5990688;23;20359;-71
2022/07/20 11:15:49;;;;;;;7.00;6.53;;;;;;;31.33;37.42;101465.50;6025322;23;20062;-71
2022/07/20 11:18:22;;;;;;;8.00;7.50;;;;;;;30.92;37.47;101408.47;5991430;23;20034;-72
2022/07/20 11:20:51;;;;;;;6.43;6.10;;;;;;;31.65;37.08;101509.31;6023575;23;20444;-72
2022/07/20 11:23:19;;;;;;;8.20;6.90;;;;;;;31.74;37.54;101480.16;5990749;23;20027;-72
2022/07/20 11:25:52;;;;;;;7.35;6.85;;;;;;;31.96;37.26;101486.31;6009683;23;20017;-72
2022/07/20 11:28:30;;;;;;;7.65;7.15;;;;;;;31.92;36.96;101453.28;6021425;23;20043;-72
2022/07/20 11:30:58;;;;;;;7.38;6.88;;;;;;;32.27;36.86;101469.50;6010689;23;20222;-72